createdAt,value
2022-08-05T00:00:54.162Z,2.70
2022-08-05T00:03:21.735Z,2.35
2022-08-05T00:06:05.019Z,2.60
2022-08-05T00:08:36.723Z,2.60
2022-08-05T00:11:07.637Z,2.58
2022-08-05T00:13:53.171Z,2.75
2022-08-05T00:16:36.273Z,2.50
2022-08-05T00:19:04.782Z,2.50
2022-08-05T00:21:36.050Z,3.00
2022-08-05T00:24:10.114Z,2.63
2022-08-05T00:26:37.986Z,2.60
2022-08-05T00:29:05.081Z,2.85
2022-08-05T00:31:53.786Z,2.47
2022-08-05T00:34:54.358Z,2.80
2022-08-05T00:37:10.573Z,2.55
2022-08-05T00:39:57.033Z,2.70
2022-08-05T00:42:32.531Z,2.80
2022-08-05T00:45:00.053Z,2.73
2022-08-05T00:47:31.623Z,2.67
2022-08-05T00:50:14.332Z,2.50
2022-08-05T00:52:42.329Z,2.65
2022-08-05T00:55:12.712Z,2.80
2022-08-05T00:57:57.957Z,2.37
2022-08-05T01:00:27.169Z,3.05
2022-08-05T01:02:54.488Z,2.80
2022-08-05T01:05:21.971Z,2.60
2022-08-05T01:08:41.801Z,2.80
2022-08-05T01:10:39.046Z,2.83
2022-08-05T01:13:13.273Z,2.67
2022-08-05T01:15:52.314Z,3.00
2022-08-05T01:18:25.774Z,3.15
2022-08-05T01:21:02.501Z,2.70
2022-08-05T01:23:34.785Z,2.70
2022-08-05T01:26:20.332Z,2.63
2022-08-05T01:29:00.542Z,2.67
2022-08-05T01:31:42.672Z,2.60
2022-08-05T01:34:31.688Z,2.83
2022-08-05T01:37:09.033Z,2.70
2022-08-05T01:39:47.330Z,2.60
2022-08-05T01:42:17.011Z,2.47
2022-08-05T01:44:45.671Z,3.00
2022-08-05T01:47:21.976Z,2.63
2022-08-05T01:50:00.564Z,2.50
2022-08-05T01:52:30.455Z,2.63
2022-08-05T01:54:58.721Z,2.40
2022-08-05T01:58:29.305Z,2.25
2022-08-05T02:00:16.590Z,2.70
2022-08-05T02:02:55.163Z,2.60
2022-08-05T02:05:23.701Z,3.13
2022-08-05T02:08:00.242Z,2.70
2022-08-05T02:10:29.983Z,2.80
2022-08-05T02:13:00.937Z,2.72
2022-08-05T02:15:35.473Z,2.67
2022-08-05T02:18:32.282Z,2.45
2022-08-05T02:21:02.981Z,2.50
2022-08-05T02:23:33.704Z,2.40
2022-08-05T02:26:03.882Z,2.45
2022-08-05T02:28:36.418Z,2.57
2022-08-05T02:31:14.322Z,2.58
2022-08-05T02:33:45.020Z,2.90
2022-08-05T02:36:17.245Z,2.70
2022-08-05T02:38:53.693Z,2.30
2022-08-05T02:41:23.007Z,2.53
2022-08-05T02:44:02.368Z,2.60
2022-08-05T02:46:33.965Z,2.67
2022-08-05T02:49:01.882Z,3.10
2022-08-05T02:52:03.206Z,2.60
2022-08-05T02:54:35.982Z,2.97
2022-08-05T02:57:05.195Z,2.92
2022-08-05T02:59:50.288Z,2.42
2022-08-05T03:02:23.611Z,2.50
2022-08-05T03:04:55.269Z,2.83
2022-08-05T03:08:00.505Z,2.53
2022-08-05T03:10:10.395Z,2.30
2022-08-05T03:12:41.146Z,2.70
2022-08-05T03:15:09.702Z,2.50
2022-08-05T03:17:40.710Z,2.40
2022-08-05T03:20:09.995Z,2.60
2022-08-05T03:22:37.611Z,2.42
2022-08-05T03:25:33.938Z,2.50
2022-08-05T03:28:00.594Z,2.40
2022-08-05T03:30:34.112Z,2.72
2022-08-05T03:33:02.786Z,2.67
2022-08-05T03:35:30.986Z,2.47
2022-08-05T03:38:01.454Z,2.40
2022-08-05T03:40:31.963Z,2.42
2022-08-05T03:43:01.379Z,2.53
2022-08-05T03:45:57.305Z,2.47
2022-08-05T03:48:25.762Z,2.33
2022-08-05T03:50:54.092Z,2.40
2022-08-05T03:55:53.700Z,2.60
2022-08-05T03:56:30.449Z,2.35
2022-08-05T03:59:03.099Z,2.50
2022-08-05T04:01:32.521Z,2.55
2022-08-05T04:04:05.428Z,2.42
2022-08-05T04:06:38.060Z,2.58
2022-08-05T04:09:08.718Z,2.70
2022-08-05T04:11:50.503Z,2.50
2022-08-05T04:14:30.344Z,2.75
2022-08-05T04:16:58.517Z,2.72
2022-08-05T04:19:25.593Z,2.72
2022-08-05T04:22:09.882Z,2.80
2022-08-05T04:24:43.885Z,2.87
2022-08-05T04:27:11.980Z,2.70
2022-08-05T04:29:39.504Z,2.47
2022-08-05T04:32:07.797Z,2.60
2022-08-05T04:34:37.500Z,2.88
2022-08-05T04:37:10.250Z,2.80
2022-08-05T04:39:38.158Z,2.78
2022-08-05T04:42:06.545Z,2.42
2022-08-05T04:44:33.639Z,2.58
2022-08-05T04:47:09.353Z,2.45
2022-08-05T04:49:38.850Z,2.33
2022-08-05T04:52:24.263Z,2.70
2022-08-05T04:54:57.405Z,2.50
2022-08-05T04:57:29.034Z,2.50
2022-08-05T04:59:57.530Z,2.05
2022-08-05T05:02:36.620Z,2.40
2022-08-05T05:05:26.107Z,2.22
2022-08-05T05:08:01.097Z,2.33
2022-08-05T05:10:29.985Z,2.50
2022-08-05T05:12:57.730Z,2.17
2022-08-05T05:15:59.126Z,2.13
2022-08-05T05:18:28.453Z,2.35
2022-08-05T05:21:01.209Z,2.67
2022-08-05T05:24:01.790Z,2.30
2022-08-05T05:26:15.446Z,2.05
2022-08-05T05:28:44.783Z,2.20
2022-08-05T05:31:12.646Z,2.28
2022-08-05T05:33:59.328Z,2.40
2022-08-05T05:36:28.841Z,2.10
2022-08-05T05:38:57.239Z,2.30
2022-08-05T05:41:24.649Z,2.23
2022-08-05T05:43:56.873Z,2.35
2022-08-05T05:46:24.941Z,2.00
2022-08-05T05:48:52.018Z,2.30
2022-08-05T05:51:21.203Z,2.45
2022-08-05T05:53:58.196Z,2.03
2022-08-05T05:56:32.732Z,2.00
2022-08-05T05:59:03.307Z,2.30
2022-08-05T06:01:37.688Z,2.20
2022-08-05T06:04:12.196Z,2.17
2022-08-05T06:06:41.672Z,1.80
2022-08-05T06:09:10.383Z,2.13
2022-08-05T06:12:00.990Z,2.35
2022-08-05T06:14:29.409Z,2.15
2022-08-05T06:16:57.035Z,1.92
2022-08-05T06:19:35.088Z,2.20
2022-08-05T06:22:06.623Z,2.08
2022-08-05T06:24:34.691Z,2.00
2022-08-05T06:27:02.089Z,1.90
2022-08-05T06:29:51.945Z,1.90
2022-08-05T06:32:25.036Z,1.93
2022-08-05T06:34:55.328Z,2.10
2022-08-05T06:37:56.788Z,1.90
2022-08-05T06:40:10.934Z,2.22
2022-08-05T06:42:39.949Z,1.90
2022-08-05T06:45:08.849Z,1.50
2022-08-05T06:48:47.320Z,2.08
2022-08-05T06:50:24.797Z,1.70
2022-08-05T06:53:03.617Z,1.70
2022-08-05T06:55:41.896Z,1.65
2022-08-05T06:58:29.035Z,1.60
2022-08-05T07:00:58.551Z,1.80
2022-08-05T07:03:32.304Z,1.45
2022-08-05T07:05:59.810Z,2.03
2022-08-05T07:08:28.713Z,1.70
2022-08-05T07:10:56.101Z,1.70
2022-08-05T07:13:57.896Z,1.50
2022-08-05T07:18:00.824Z,1.80
2022-08-05T07:20:10.636Z,1.67
2022-08-05T07:22:22.411Z,1.63
2022-08-05T07:24:56.480Z,1.40
2022-08-05T07:27:23.826Z,1.65
2022-08-05T07:30:22.938Z,1.25
2022-08-05T07:32:41.674Z,1.20
2022-08-05T07:36:05.388Z,1.17
2022-08-05T07:37:59.545Z,1.30
2022-08-05T07:40:32.838Z,1.30
2022-08-05T07:43:04.859Z,1.17
2022-08-05T07:45:57.285Z,1.63
2022-08-05T07:49:02.152Z,1.27
2022-08-05T07:51:23.731Z,1.20
2022-08-05T07:53:59.379Z,1.40
2022-08-05T07:57:01.197Z,1.40
2022-08-05T07:59:16.173Z,1.30
2022-08-05T08:01:52.268Z,1.38
2022-08-05T08:04:37.419Z,1.50
2022-08-05T08:07:06.958Z,1.30
2022-08-05T08:09:34.741Z,1.30
2022-08-05T08:12:11.208Z,1.40
2022-08-05T08:14:46.798Z,1.17
2022-08-05T08:17:16.097Z,1.10
2022-08-05T08:20:21.858Z,1.00
2022-08-05T08:22:32.233Z,1.00
2022-08-05T08:25:03.322Z,1.30
2022-08-05T08:27:35.700Z,1.25
2022-08-05T08:30:29.976Z,1.30
2022-08-05T08:32:58.639Z,2.22
2022-08-05T08:35:35.160Z,1.20
2022-08-05T08:38:08.430Z,1.00
2022-08-05T08:40:38.927Z,1.35
2022-08-05T08:45:20.443Z,1.23
2022-08-05T08:45:55.111Z,1.25
2022-08-05T08:49:03.277Z,1.30
2022-08-05T08:52:01.656Z,1.33
2022-08-05T08:53:56.861Z,1.20
2022-08-05T08:56:27.133Z,1.27
2022-08-05T08:58:54.841Z,1.20
2022-08-05T09:01:25.754Z,1.10
2022-08-05T09:03:55.570Z,1.25
2022-08-05T09:06:29.306Z,1.40
2022-08-05T09:08:58.318Z,1.10
2022-08-05T09:11:51.884Z,1.17
2022-08-05T09:14:58.319Z,1.30
2022-08-05T09:17:04.592Z,1.30
2022-08-05T09:19:36.648Z,1.40
2022-08-05T09:22:30.934Z,1.30
2022-08-05T09:25:02.158Z,1.33
2022-08-05T09:28:04.307Z,1.10
2022-08-05T09:30:34.018Z,1.05
2022-08-05T09:33:04.982Z,1.60
2022-08-05T09:35:32.793Z,1.07
2022-08-05T09:38:12.829Z,1.30
2022-08-05T09:40:52.175Z,1.30
2022-08-05T09:43:40.636Z,1.40
2022-08-05T09:46:27.919Z,1.33
2022-08-05T09:49:07.532Z,1.17
2022-08-05T09:51:37.416Z,1.40
2022-08-05T09:54:08.260Z,1.58
2022-08-05T09:56:37.917Z,1.27
2022-08-05T09:59:09.406Z,1.25
2022-08-05T10:01:45.633Z,1.47
2022-08-05T10:04:16.055Z,1.30
2022-08-05T10:06:58.910Z,1.23
2022-08-05T10:09:28.180Z,1.25
2022-08-05T10:12:30.693Z,1.40
2022-08-05T10:14:55.206Z,1.50
2022-08-05T10:17:37.283Z,1.20
2022-08-05T10:20:09.935Z,1.40
2022-08-05T10:22:48.663Z,1.10
2022-08-05T10:25:18.766Z,1.10
2022-08-05T10:28:13.310Z,1.10
2022-08-05T10:32:49.350Z,1.20
2022-08-05T10:33:23.510Z,1.17
2022-08-05T10:35:58.971Z,1.20
2022-08-05T10:38:29.127Z,1.17
2022-08-05T10:41:08.826Z,1.03
2022-08-05T10:43:50.959Z,0.95
2022-08-05T10:46:23.841Z,1.17
2022-08-05T10:49:00.527Z,1.10
2022-08-05T10:51:53.144Z,1.10
2022-08-05T10:54:46.895Z,0.87
2022-08-05T10:57:29.406Z,1.17
2022-08-05T11:00:19.541Z,1.02
2022-08-05T11:03:25.702Z,1.02
2022-08-05T11:06:15.266Z,1.10
2022-08-05T11:09:02.155Z,1.03
2022-08-05T11:11:44.720Z,1.00
2022-08-05T11:17:58.178Z,0.98
2022-08-05T11:20:32.838Z,1.10
2022-08-05T11:23:05.801Z,1.00
2022-08-05T11:26:04.903Z,1.00
2022-08-05T11:28:22.385Z,1.00
2022-08-05T11:31:01.449Z,1.13
2022-08-05T11:33:46.706Z,0.90
2022-08-05T11:36:34.654Z,1.13
2022-08-05T11:39:05.609Z,1.23
2022-08-05T11:42:01.689Z,1.00
2022-08-05T11:44:53.093Z,1.00
2022-08-05T11:47:48.902Z,0.90
2022-08-05T11:49:58.217Z,1.00
2022-08-05T11:52:29.699Z,1.00
2022-08-05T11:54:59.537Z,1.00
2022-08-05T11:58:08.403Z,0.90
2022-08-05T12:00:29.122Z,1.20
2022-08-05T12:02:57.718Z,0.90
2022-08-05T12:05:36.228Z,1.00
2022-08-05T12:08:11.250Z,1.25
2022-08-05T12:10:45.836Z,0.90
2022-08-05T12:13:17.314Z,1.10
2022-08-05T12:15:56.017Z,1.23
2022-08-05T12:18:32.988Z,1.23
2022-08-05T12:21:13.606Z,1.13
2022-08-05T12:23:52.625Z,1.05
2022-08-05T12:26:19.914Z,1.20
2022-08-05T12:28:47.030Z,1.40
2022-08-05T12:31:23.371Z,1.30
2022-08-05T12:34:05.417Z,1.20
2022-08-05T12:36:33.385Z,1.20
2022-08-05T12:39:00.754Z,1.13
2022-08-05T12:41:34.559Z,1.23
2022-08-05T12:44:03.121Z,1.10
2022-08-05T12:46:31.565Z,1.10
2022-08-05T12:49:13.231Z,1.15
2022-08-05T12:52:13.942Z,1.50
2022-08-05T12:54:40.776Z,1.20
2022-08-05T12:57:10.715Z,1.50
2022-08-05T13:01:58.568Z,1.17
2022-08-05T13:02:41.068Z,1.30
2022-08-05T13:05:08.474Z,1.20
2022-08-05T13:07:59.547Z,1.30
2022-08-05T13:10:28.758Z,1.67
2022-08-05T13:12:58.003Z,1.17
2022-08-05T13:15:42.173Z,1.10
2022-08-05T13:18:19.021Z,1.40
2022-08-05T13:20:49.275Z,1.00
2022-08-05T13:23:17.996Z,1.50
2022-08-05T13:25:52.745Z,1.20
2022-08-05T13:28:26.987Z,1.15
2022-08-05T13:30:54.149Z,1.10
2022-08-05T13:34:22.502Z,1.10
2022-08-05T13:36:14.377Z,1.38
2022-08-05T13:38:42.540Z,1.10
2022-08-05T13:41:10.888Z,1.35
2022-08-05T13:43:44.528Z,1.00
2022-08-05T13:46:13.592Z,1.20
2022-08-05T13:49:00.333Z,1.13
2022-08-05T13:51:29.589Z,1.00
2022-08-05T13:54:11.977Z,0.90
2022-08-05T13:56:44.937Z,0.90
2022-08-05T13:59:24.914Z,1.03
2022-08-05T14:01:57.425Z,1.00
2022-08-05T14:04:49.509Z,0.93
2022-08-05T14:07:55.375Z,0.80
2022-08-05T14:10:09.243Z,1.60
2022-08-05T14:12:36.771Z,1.10
2022-08-05T14:15:05.870Z,1.05
2022-08-05T14:17:55.065Z,1.02
2022-08-05T14:20:27.762Z,0.93
2022-08-05T14:22:55.054Z,1.00
2022-08-05T14:25:28.246Z,1.00
2022-08-05T14:27:55.665Z,1.10
2022-08-05T14:30:22.856Z,1.10
2022-08-05T14:32:53.557Z,1.10
2022-08-05T14:35:22.798Z,1.25
2022-08-05T14:37:55.013Z,1.00
2022-08-05T14:40:24.284Z,1.08
2022-08-05T14:42:51.845Z,1.05
2022-08-05T14:45:19.061Z,1.20
2022-08-05T14:48:04.116Z,1.27
2022-08-05T14:50:33.218Z,1.00
2022-08-05T14:53:07.103Z,1.08
2022-08-05T14:55:39.548Z,0.98
2022-08-05T14:58:12.032Z,1.15
2022-08-05T15:00:58.742Z,1.00
2022-08-05T15:03:27.708Z,1.50
2022-08-05T15:06:13.469Z,1.00
2022-08-05T15:09:01.088Z,1.10
2022-08-05T15:11:52.706Z,1.13
2022-08-05T15:14:33.461Z,1.10
2022-08-05T15:17:03.886Z,1.20
2022-08-05T15:19:31.371Z,1.20
2022-08-05T15:22:01.049Z,1.00
2022-08-05T15:24:28.739Z,1.10
2022-08-05T15:26:57.066Z,1.30
2022-08-05T15:29:30.219Z,1.03
2022-08-05T15:32:03.309Z,0.93
2022-08-05T15:34:33.785Z,1.10
2022-08-05T15:37:06.268Z,0.93
2022-08-05T15:41:01.462Z,1.05
2022-08-05T15:42:56.273Z,1.23
2022-08-05T15:45:18.739Z,1.20
2022-08-05T15:47:54.406Z,1.83
2022-08-05T15:50:25.104Z,1.27
2022-08-05T15:52:55.363Z,1.13
2022-08-05T15:55:24.852Z,0.90
2022-08-05T15:58:16.598Z,1.13
2022-08-05T16:00:50.467Z,1.00
2022-08-05T16:03:32.602Z,1.02
2022-08-05T16:06:03.432Z,1.05
2022-08-05T16:08:31.827Z,1.10
2022-08-05T16:10:59.167Z,1.20
2022-08-05T16:13:31.846Z,1.20
2022-08-05T16:16:01.649Z,1.10
2022-08-05T16:18:30.507Z,1.15
2022-08-05T16:20:59.652Z,1.10
2022-08-05T16:23:32.985Z,1.17
2022-08-05T16:26:18.336Z,1.05
2022-08-05T16:28:47.309Z,1.48
2022-08-05T16:31:16.810Z,1.20
2022-08-05T16:33:46.150Z,1.17
2022-08-05T16:36:13.370Z,1.00
2022-08-05T16:38:54.439Z,1.08
2022-08-05T16:42:27.782Z,1.30
2022-08-05T16:44:10.489Z,1.10
2022-08-05T16:46:38.773Z,1.23
2022-08-05T16:49:09.110Z,0.82
2022-08-05T16:51:42.931Z,1.40
2022-08-05T16:54:25.731Z,1.48
2022-08-05T16:56:56.040Z,1.27
2022-08-05T16:59:23.311Z,1.20
2022-08-05T17:01:54.329Z,1.40
2022-08-05T17:04:23.847Z,1.27
2022-08-05T17:06:55.239Z,1.05
2022-08-05T17:09:23.141Z,1.20
2022-08-05T17:11:54.681Z,1.10
2022-08-05T17:14:36.732Z,1.30
2022-08-05T17:17:05.556Z,1.40
2022-08-05T17:19:32.736Z,1.55
2022-08-05T17:22:01.207Z,1.20
2022-08-05T17:24:38.710Z,1.27
2022-08-05T17:27:11.790Z,1.30
2022-08-05T17:29:43.214Z,1.17
2022-08-05T17:32:17.366Z,1.20
2022-08-05T17:34:53.495Z,1.17
2022-08-05T17:37:41.798Z,0.93
2022-08-05T17:40:10.386Z,1.15
2022-08-05T17:42:42.962Z,0.90
2022-08-05T17:45:21.019Z,1.00
2022-08-05T17:47:53.591Z,1.25
2022-08-05T17:50:28.032Z,1.00
2022-08-05T17:52:56.623Z,1.17
2022-08-05T17:55:34.114Z,0.90
2022-08-05T17:58:02.120Z,1.60
2022-08-05T18:00:29.815Z,1.27
2022-08-05T18:02:57.224Z,1.00
2022-08-05T18:05:27.928Z,0.95
2022-08-05T18:07:56.894Z,0.90
2022-08-05T18:10:24.623Z,1.10
2022-08-05T18:12:52.829Z,0.95
2022-08-05T18:15:20.028Z,1.00
2022-08-05T18:17:59.068Z,1.10
2022-08-05T18:20:32.998Z,1.20
2022-08-05T18:23:09.362Z,1.10
2022-08-05T18:25:45.061Z,1.25
2022-08-05T18:28:12.764Z,1.20
2022-08-05T18:30:45.055Z,1.10
2022-08-05T18:33:15.099Z,1.20
2022-08-05T18:36:00.774Z,1.00
2022-08-05T18:38:31.221Z,1.25
2022-08-05T18:41:55.690Z,1.07
2022-08-05T18:43:48.626Z,1.10
2022-08-05T18:46:19.955Z,1.10
2022-08-05T18:48:48.057Z,1.30
2022-08-05T18:52:04.584Z,1.33
2022-08-05T18:54:25.422Z,1.20
2022-08-05T18:56:52.527Z,1.02
2022-08-05T18:59:42.942Z,1.23
2022-08-05T19:02:11.156Z,1.30
2022-08-05T19:05:01.429Z,1.35
2022-08-05T19:07:45.404Z,1.07
2022-08-05T19:10:16.401Z,1.10
2022-08-05T19:12:46.271Z,0.90
2022-08-05T19:15:56.853Z,1.00
2022-08-05T19:18:09.645Z,1.02
2022-08-05T19:20:41.735Z,1.20
2022-08-05T19:25:44.380Z,1.40
2022-08-05T19:28:11.543Z,1.20
2022-08-05T19:30:43.814Z,1.20
2022-08-05T19:33:16.904Z,1.70
2022-08-05T19:35:56.764Z,1.80
2022-08-05T19:38:26.672Z,1.27
2022-08-05T19:40:53.920Z,1.10
2022-08-05T19:43:24.412Z,1.10
2022-08-05T19:46:16.658Z,1.20
2022-08-05T19:48:55.238Z,1.23
2022-08-05T19:51:37.897Z,1.17
2022-08-05T19:54:21.856Z,1.40
2022-08-05T19:56:55.695Z,1.30
2022-08-05T19:59:55.889Z,1.20
2022-08-05T20:02:09.994Z,1.05
2022-08-05T20:04:38.216Z,1.70
2022-08-05T20:07:13.458Z,1.30
2022-08-05T20:09:54.627Z,1.10
2022-08-05T20:12:24.302Z,1.30
2022-08-05T20:14:52.728Z,2.15
2022-08-05T20:17:23.580Z,1.25
2022-08-05T20:19:57.002Z,1.03
2022-08-05T20:22:27.184Z,1.08
2022-08-05T20:24:55.393Z,2.55
2022-08-05T20:27:27.720Z,2.40
2022-08-05T20:30:10.164Z,1.60
2022-08-05T20:32:37.333Z,1.47
2022-08-05T20:35:12.196Z,1.20
2022-08-05T20:38:07.858Z,1.35
2022-08-05T20:40:27.343Z,1.20
2022-08-05T20:42:59.972Z,1.10
2022-08-05T20:45:56.017Z,1.10
2022-08-05T20:48:16.352Z,1.20
2022-08-05T20:50:45.316Z,1.20
2022-08-05T20:53:16.307Z,1.50
2022-08-05T20:56:08.439Z,1.10
2022-08-05T20:58:39.071Z,1.03
2022-08-05T21:01:06.217Z,1.00
2022-08-05T21:03:36.962Z,1.40
2022-08-05T21:06:28.804Z,1.30
2022-08-05T21:08:56.807Z,1.25
2022-08-05T21:12:07.741Z,1.50
2022-08-05T21:14:10.926Z,1.20
2022-08-05T21:16:39.815Z,1.40
2022-08-05T21:19:06.866Z,1.30
2022-08-05T21:21:43.901Z,1.60
2022-08-05T21:24:19.593Z,1.30
2022-08-05T21:26:53.111Z,1.40
2022-08-05T21:29:23.476Z,1.42
2022-08-05T21:31:53.827Z,1.30
2022-08-05T21:34:21.075Z,1.40
2022-08-05T21:36:49.419Z,1.30
2022-08-05T21:39:26.291Z,1.20
2022-08-05T21:42:02.008Z,1.35
2022-08-05T21:44:30.143Z,1.50
2022-08-05T21:46:58.573Z,1.48
2022-08-05T21:49:59.501Z,1.40
2022-08-05T21:52:22.980Z,1.77
2022-08-05T21:54:55.471Z,1.52
2022-08-05T21:57:31.545Z,1.40
2022-08-05T22:00:10.893Z,1.52
2022-08-05T22:02:38.673Z,1.73
2022-08-05T22:05:06.070Z,1.40
2022-08-05T22:07:40.521Z,1.40
2022-08-05T22:10:26.680Z,1.40
2022-08-05T22:12:54.823Z,1.60
2022-08-05T22:15:56.597Z,1.50
2022-08-05T22:18:11.889Z,1.40
2022-08-05T22:20:39.824Z,1.95
2022-08-05T22:24:00.659Z,1.60
2022-08-05T22:26:31.810Z,1.50
2022-08-05T22:29:00.847Z,1.80
2022-08-05T22:31:30.030Z,1.60
2022-08-05T22:34:01.610Z,1.83
2022-08-05T22:36:29.595Z,1.83
2022-08-05T22:38:57.060Z,1.80
2022-08-05T22:42:10.198Z,1.80
2022-08-05T22:44:18.971Z,1.60
2022-08-05T22:46:46.399Z,1.95
2022-08-05T22:49:46.175Z,2.05
2022-08-05T22:52:06.399Z,1.70
2022-08-05T22:54:38.796Z,1.80
2022-08-05T22:57:06.498Z,2.05
2022-08-05T22:59:45.082Z,1.65
2022-08-05T23:02:17.661Z,1.90
2022-08-05T23:04:51.084Z,1.60
2022-08-05T23:07:18.625Z,1.87
2022-08-05T23:09:57.281Z,1.80
2022-08-05T23:12:32.388Z,2.00
2022-08-05T23:15:00.386Z,2.10
2022-08-05T23:17:34.419Z,1.88
2022-08-05T23:20:06.189Z,2.70
2022-08-05T23:22:43.943Z,2.30
2022-08-05T23:25:17.169Z,2.20
2022-08-05T23:28:02.265Z,2.17
2022-08-05T23:30:31.171Z,2.00
2022-08-05T23:32:58.868Z,2.10
2022-08-05T23:35:28.405Z,2.20
2022-08-05T23:38:01.118Z,2.30
2022-08-05T23:40:28.267Z,2.28
2022-08-05T23:42:55.585Z,2.17
2022-08-05T23:45:23.791Z,2.23
2022-08-05T23:47:53.879Z,2.10
2022-08-05T23:50:26.688Z,2.63
2022-08-05T23:52:55.280Z,2.20
2022-08-05T23:55:30.821Z,2.53
2022-08-05T23:57:58.666Z,2.23
